Ada, South Dakota
Current Conditions -  °F | °C
As of 6:53 AM on Friday 31 Oct 2014 (Local Time) from KHEI Reporting Station
Overcast Overcast  
Wind Chill: -10°   Ceiling: 400
Heat Index: -3°   Visibility: 9mi
Dew Point: -4°   Wind: 16mph
Humidity: 92%   Direction: 150°SSE
Pressure: 30.39"   Gusts: 25mph
Location:  45.5161°N, 102.519°W
Report Text: KHEI 311253Z AUTO 15014G22KT 9SM OVC004 M03/M04 A3039 RMK AO2 SLP320 I1000 T10281039
Loading
Personal Weather Stations






























Interactive Weather Map
Tropical Storm Tracking
New forecast layout! Learn more

10-Day Weather Forecast

Advertisements
Track Severe Weather on mobile